sensor_id;sensor_type;location;lat;lon;timestamp;temperature;humidity
16999;DHT22;10211;49.476;11.010;2023-09-30T00:00:36;16.50;99.90
16999;DHT22;10211;49.476;11.010;2023-09-30T00:03:03;16.40;99.90
16999;DHT22;10211;49.476;11.010;2023-09-30T00:05:30;16.40;99.90
16999;DHT22;10211;49.476;11.010;2023-09-30T00:07:57;16.50;99.90
16999;DHT22;10211;49.476;11.010;2023-09-30T00:10:23;16.30;99.90
16999;DHT22;10211;49.476;11.010;2023-09-30T00:12:50;16.20;99.90
16999;DHT22;10211;49.476;11.010;2023-09-30T00:15:18;16.20;99.90
16999;DHT22;10211;49.476;11.010;2023-09-30T00:17:45;16.20;99.90
16999;DHT22;10211;49.476;11.010;2023-09-30T00:20:12;16.10;99.90
16999;DHT22;10211;49.476;11.010;2023-09-30T00:22:40;16.10;99.90
16999;DHT22;10211;49.476;11.010;2023-09-30T00:25:07;16.10;99.90
16999;DHT22;10211;49.476;11.010;2023-09-30T00:27:34;16.00;99.90
16999;DHT22;10211;49.476;11.010;2023-09-30T00:30:01;16.00;99.90
16999;DHT22;10211;49.476;11.010;2023-09-30T00:32:29;16.00;99.90
16999;DHT22;10211;49.476;11.010;2023-09-30T00:34:57;15.90;99.90
16999;DHT22;10211;49.476;11.010;2023-09-30T00:37:23;15.90;99.90
16999;DHT22;10211;49.476;11.010;2023-09-30T00:39:50;15.90;99.90
16999;DHT22;10211;49.476;11.010;2023-09-30T00:42:17;15.80;99.90
16999;DHT22;10211;49.476;11.010;2023-09-30T00:44:46;15.80;99.90
16999;DHT22;10211;49.476;11.010;2023-09-30T00:47:13;15.80;99.90
16999;DHT22;10211;49.476;11.010;2023-09-30T00:49:41;16.10;99.90
16999;DHT22;10211;49.476;11.010;2023-09-30T00:52:09;15.90;99.90
16999;DHT22;10211;49.476;11.010;2023-09-30T00:54:36;16.00;99.90
16999;DHT22;10211;49.476;11.010;2023-09-30T00:57:04;16.10;99.90
16999;DHT22;10211;49.476;11.010;2023-09-30T00:59:31;16.20;99.90
16999;DHT22;10211;49.476;11.010;2023-09-30T01:02:00;16.30;99.90
16999;DHT22;10211;49.476;11.010;2023-09-30T01:04:30;16.30;99.90
16999;DHT22;10211;49.476;11.010;2023-09-30T01:06:58;16.40;99.90
16999;DHT22;10211;49.476;11.010;2023-09-30T01:09:25;16.40;99.90
16999;DHT22;10211;49.476;11.010;2023-09-30T01:11:53;16.80;99.90
16999;DHT22;10211;49.476;11.010;2023-09-30T01:14:27;16.50;99.90
16999;DHT22;10211;49.476;11.010;2023-09-30T01:16:54;16.60;99.90
16999;DHT22;10211;49.476;11.010;2023-09-30T01:19:21;16.60;99.90
16999;DHT22;10211;49.476;11.010;2023-09-30T01:21:51;16.60;99.90
16999;DHT22;10211;49.476;11.010;2023-09-30T01:24:20;16.70;99.90
16999;DHT22;10211;49.476;11.010;2023-09-30T01:26:46;16.70;99.90
16999;DHT22;10211;49.476;11.010;2023-09-30T01:29:14;16.70;99.90
16999;DHT22;10211;49.476;11.010;2023-09-30T01:31:40;17.10;99.90
16999;DHT22;10211;49.476;11.010;2023-09-30T01:34:07;16.70;99.90
16999;DHT22;10211;49.476;11.010;2023-09-30T01:36:36;16.70;99.90
16999;DHT22;10211;49.476;11.010;2023-09-30T01:39:04;16.70;99.90
16999;DHT22;10211;49.476;11.010;2023-09-30T01:41:33;16.80;99.90
16999;DHT22;10211;49.476;11.010;2023-09-30T01:44:01;16.80;99.90
16999;DHT22;10211;49.476;11.010;2023-09-30T01:46:28;17.40;99.90
16999;DHT22;10211;49.476;11.010;2023-09-30T01:48:55;16.80;99.90
16999;DHT22;10211;49.476;11.010;2023-09-30T01:51:21;16.90;99.90
16999;DHT22;10211;49.476;11.010;2023-09-30T01:53:49;16.90;99.90
16999;DHT22;10211;49.476;11.010;2023-09-30T01:56:17;16.90;99.90
16999;DHT22;10211;49.476;11.010;2023-09-30T01:58:44;16.90;99.90
16999;DHT22;10211;49.476;11.010;2023-09-30T02:01:10;16.90;99.90
16999;DHT22;10211;49.476;11.010;2023-09-30T02:03:37;16.90;99.90
16999;DHT22;10211;49.476;11.010;2023-09-30T02:06:04;17.00;99.90
16999;DHT22;10211;49.476;11.010;2023-09-30T02:08:31;17.00;99.90
16999;DHT22;10211;49.476;11.010;2023-09-30T02:10:58;17.00;99.90
16999;DHT22;10211;49.476;11.010;2023-09-30T02:13:26;17.00;99.90
16999;DHT22;10211;49.476;11.010;2023-09-30T02:15:53;17.00;99.90
16999;DHT22;10211;49.476;11.010;2023-09-30T02:18:21;17.50;99.90
16999;DHT22;10211;49.476;11.010;2023-09-30T02:20:49;17.00;99.90
16999;DHT22;10211;49.476;11.010;2023-09-30T02:23:16;16.90;99.90
16999;DHT22;10211;49.476;11.010;2023-09-30T02:25:43;16.90;99.90
16999;DHT22;10211;49.476;11.010;2023-09-30T02:28:10;16.90;99.90
16999;DHT22;10211;49.476;11.010;2023-09-30T02:30:38;16.80;99.90
16999;DHT22;10211;49.476;11.010;2023-09-30T02:33:05;16.90;99.90
16999;DHT22;10211;49.476;11.010;2023-09-30T02:35:32;16.80;99.90
16999;DHT22;10211;49.476;11.010;2023-09-30T02:38:00;16.70;99.90
16999;DHT22;10211;49.476;11.010;2023-09-30T02:40:28;16.70;99.90
16999;DHT22;10211;49.476;11.010;2023-09-30T02:42:54;16.60;99.90
16999;DHT22;10211;49.476;11.010;2023-09-30T02:45:26;16.60;99.90
16999;DHT22;10211;49.476;11.010;2023-09-30T02:47:54;16.70;99.90
16999;DHT22;10211;49.476;11.010;2023-09-30T02:50:26;16.60;99.90
16999;DHT22;10211;49.476;11.010;2023-09-30T02:52:53;16.60;99.90
16999;DHT22;10211;49.476;11.010;2023-09-30T02:55:20;16.60;99.90
16999;DHT22;10211;49.476;11.010;2023-09-30T02:57:47;16.60;99.90
16999;DHT22;10211;49.476;11.010;2023-09-30T03:00:14;16.50;99.90
16999;DHT22;10211;49.476;11.010;2023-09-30T03:02:46;16.50;99.90
16999;DHT22;10211;49.476;11.010;2023-09-30T03:05:15;16.50;99.90
16999;DHT22;10211;49.476;11.010;2023-09-30T03:07:42;16.50;99.90
16999;DHT22;10211;49.476;11.010;2023-09-30T03:10:09;16.40;99.90
16999;DHT22;10211;49.476;11.010;2023-09-30T03:12:38;16.30;99.90
16999;DHT22;10211;49.476;11.010;2023-09-30T03:15:05;16.30;99.90
16999;DHT22;10211;49.476;11.010;2023-09-30T03:17:32;16.10;99.90
16999;DHT22;10211;49.476;11.010;2023-09-30T03:20:00;16.00;99.90
16999;DHT22;10211;49.476;11.010;2023-09-30T03:22:29;15.90;99.90
16999;DHT22;10211;49.476;11.010;2023-09-30T03:24:56;16.00;99.90
16999;DHT22;10211;49.476;11.010;2023-09-30T03:27:22;15.80;99.90
16999;DHT22;10211;49.476;11.010;2023-09-30T03:29:49;16.30;99.90
16999;DHT22;10211;49.476;11.010;2023-09-30T03:32:16;15.70;99.90
16999;DHT22;10211;49.476;11.010;2023-09-30T03:34:44;15.70;99.90
16999;DHT22;10211;49.476;11.010;2023-09-30T03:37:11;15.60;99.90
16999;DHT22;10211;49.476;11.010;2023-09-30T03:39:41;15.60;99.90
16999;DHT22;10211;49.476;11.010;2023-09-30T03:42:09;15.50;99.90
16999;DHT22;10211;49.476;11.010;2023-09-30T03:44:37;15.50;99.90
16999;DHT22;10211;49.476;11.010;2023-09-30T03:47:04;15.50;99.90
16999;DHT22;10211;49.476;11.010;2023-09-30T03:49:33;15.40;99.90
16999;DHT22;10211;49.476;11.010;2023-09-30T03:51:59;15.40;99.90
16999;DHT22;10211;49.476;11.010;2023-09-30T03:54:27;15.30;99.90
16999;DHT22;10211;49.476;11.010;2023-09-30T03:56:55;15.30;99.90
16999;DHT22;10211;49.476;11.010;2023-09-30T03:59:22;15.30;99.90
16999;DHT22;10211;49.476;11.010;2023-09-30T04:01:48;15.30;99.90
16999;DHT22;10211;49.476;11.010;2023-09-30T04:04:16;15.20;99.90
16999;DHT22;10211;49.476;11.010;2023-09-30T04:06:43;15.10;99.90
16999;DHT22;10211;49.476;11.010;2023-09-30T04:09:12;15.10;99.90
16999;DHT22;10211;49.476;11.010;2023-09-30T04:11:39;15.00;99.90
16999;DHT22;10211;49.476;11.010;2023-09-30T04:14:09;14.90;99.90
16999;DHT22;10211;49.476;11.010;2023-09-30T04:16:36;14.80;99.90
16999;DHT22;10211;49.476;11.010;2023-09-30T04:19:03;14.80;99.90
16999;DHT22;10211;49.476;11.010;2023-09-30T04:21:33;14.80;99.90
16999;DHT22;10211;49.476;11.010;2023-09-30T04:24:00;14.70;99.90
16999;DHT22;10211;49.476;11.010;2023-09-30T04:26:27;14.80;99.90
16999;DHT22;10211;49.476;11.010;2023-09-30T04:28:54;14.70;99.90
16999;DHT22;10211;49.476;11.010;2023-09-30T04:31:23;14.80;99.90
16999;DHT22;10211;49.476;11.010;2023-09-30T04:33:50;14.80;99.90
16999;DHT22;10211;49.476;11.010;2023-09-30T04:36:18;14.80;99.90
16999;DHT22;10211;49.476;11.010;2023-09-30T04:38:45;14.70;99.90
16999;DHT22;10211;49.476;11.010;2023-09-30T04:41:12;14.80;99.90
16999;DHT22;10211;49.476;11.010;2023-09-30T04:43:41;14.90;99.90
16999;DHT22;10211;49.476;11.010;2023-09-30T04:46:08;14.70;99.90
16999;DHT22;10211;49.476;11.010;2023-09-30T04:48:39;14.70;99.90
16999;DHT22;10211;49.476;11.010;2023-09-30T04:51:07;14.80;99.90
16999;DHT22;10211;49.476;11.010;2023-09-30T04:53:34;14.70;99.90
16999;DHT22;10211;49.476;11.010;2023-09-30T04:56:01;14.70;99.90
16999;DHT22;10211;49.476;11.010;2023-09-30T04:58:28;14.70;99.90
16999;DHT22;10211;49.476;11.010;2023-09-30T05:00:56;14.70;99.90
16999;DHT22;10211;49.476;11.010;2023-09-30T05:03:23;14.70;99.90
16999;DHT22;10211;49.476;11.010;2023-09-30T05:05:52;14.60;99.90
16999;DHT22;10211;49.476;11.010;2023-09-30T05:08:22;14.60;99.90
16999;DHT22;10211;49.476;11.010;2023-09-30T05:10:48;14.60;99.90
16999;DHT22;10211;49.476;11.010;2023-09-30T05:13:15;14.90;99.90
16999;DHT22;10211;49.476;11.010;2023-09-30T05:15:43;14.50;99.90
16999;DHT22;10211;49.476;11.010;2023-09-30T05:18:10;14.50;99.90
16999;DHT22;10211;49.476;11.010;2023-09-30T05:20:36;14.40;99.90
16999;DHT22;10211;49.476;11.010;2023-09-30T05:23:06;14.30;99.90
16999;DHT22;10211;49.476;11.010;2023-09-30T05:25:33;14.30;99.90
16999;DHT22;10211;49.476;11.010;2023-09-30T05:28:00;14.30;99.90
16999;DHT22;10211;49.476;11.010;2023-09-30T05:30:27;14.30;99.90
16999;DHT22;10211;49.476;11.010;2023-09-30T05:32:53;14.20;99.90
16999;DHT22;10211;49.476;11.010;2023-09-30T05:35:20;14.20;99.90
16999;DHT22;10211;49.476;11.010;2023-09-30T05:37:48;14.20;99.90
16999;DHT22;10211;49.476;11.010;2023-09-30T05:40:19;14.20;99.90
16999;DHT22;10211;49.476;11.010;2023-09-30T05:42:52;14.20;99.90
16999;DHT22;10211;49.476;11.010;2023-09-30T05:45:19;14.20;99.90
16999;DHT22;10211;49.476;11.010;2023-09-30T05:47:46;14.20;99.90
16999;DHT22;10211;49.476;11.010;2023-09-30T05:50:13;14.20;99.90
16999;DHT22;10211;49.476;11.010;2023-09-30T05:52:41;14.60;99.90
16999;DHT22;10211;49.476;11.010;2023-09-30T05:55:09;14.30;99.90
16999;DHT22;10211;49.476;11.010;2023-09-30T05:57:37;14.30;99.90
16999;DHT22;10211;49.476;11.010;2023-09-30T06:00:07;14.40;99.90
16999;DHT22;10211;49.476;11.010;2023-09-30T06:02:53;14.30;99.90
16999;DHT22;10211;49.476;11.010;2023-09-30T06:05:21;14.40;99.90
16999;DHT22;10211;49.476;11.010;2023-09-30T06:07:49;14.40;99.90
16999;DHT22;10211;49.476;11.010;2023-09-30T06:10:16;14.50;99.90
16999;DHT22;10211;49.476;11.010;2023-09-30T06:15:20;14.60;99.90
16999;DHT22;10211;49.476;11.010;2023-09-30T06:17:51;14.70;99.90
16999;DHT22;10211;49.476;11.010;2023-09-30T06:20:19;14.80;99.90
16999;DHT22;10211;49.476;11.010;2023-09-30T06:22:48;14.80;99.90
16999;DHT22;10211;49.476;11.010;2023-09-30T06:25:16;14.80;99.90
16999;DHT22;10211;49.476;11.010;2023-09-30T06:27:43;14.90;99.90
16999;DHT22;10211;49.476;11.010;2023-09-30T06:30:11;15.00;99.90
16999;DHT22;10211;49.476;11.010;2023-09-30T06:35:15;15.00;99.90
16999;DHT22;10211;49.476;11.010;2023-09-30T06:38:00;15.10;99.90
16999;DHT22;10211;49.476;11.010;2023-09-30T06:40:34;15.10;99.90
16999;DHT22;10211;49.476;11.010;2023-09-30T06:48:28;15.20;99.90
16999;DHT22;10211;49.476;11.010;2023-09-30T06:50:56;15.20;99.90
16999;DHT22;10211;49.476;11.010;2023-09-30T06:53:39;15.20;99.90
16999;DHT22;10211;49.476;11.010;2023-09-30T06:56:07;15.20;99.90
16999;DHT22;10211;49.476;11.010;2023-09-30T06:58:37;15.30;99.90
16999;DHT22;10211;49.476;11.010;2023-09-30T07:01:18;15.10;99.90
16999;DHT22;10211;49.476;11.010;2023-09-30T07:08:57;15.10;99.90
16999;DHT22;10211;49.476;11.010;2023-09-30T07:11:28;15.10;99.90
16999;DHT22;10211;49.476;11.010;2023-09-30T07:13:58;15.10;99.90
16999;DHT22;10211;49.476;11.010;2023-09-30T07:16:26;15.20;99.90
16999;DHT22;10211;49.476;11.010;2023-09-30T07:18:53;15.40;99.90
16999;DHT22;10211;49.476;11.010;2023-09-30T07:21:22;15.30;99.90
16999;DHT22;10211;49.476;11.010;2023-09-30T07:23:51;15.30;99.90
16999;DHT22;10211;49.476;11.010;2023-09-30T07:26:33;15.60;99.90
16999;DHT22;10211;49.476;11.010;2023-09-30T07:29:00;15.70;99.90
16999;DHT22;10211;49.476;11.010;2023-09-30T07:31:37;15.90;99.90
16999;DHT22;10211;49.476;11.010;2023-09-30T07:34:03;16.10;99.90
16999;DHT22;10211;49.476;11.010;2023-09-30T07:36:31;16.20;99.90
16999;DHT22;10211;49.476;11.010;2023-09-30T07:38:58;16.30;99.90
16999;DHT22;10211;49.476;11.010;2023-09-30T07:41:26;16.60;99.90
16999;DHT22;10211;49.476;11.010;2023-09-30T07:43:54;16.50;99.90
16999;DHT22;10211;49.476;11.010;2023-09-30T07:46:22;16.50;99.90
16999;DHT22;10211;49.476;11.010;2023-09-30T07:48:49;16.60;99.90
16999;DHT22;10211;49.476;11.010;2023-09-30T07:51:25;16.50;99.90
16999;DHT22;10211;49.476;11.010;2023-09-30T07:53:52;16.50;99.90
16999;DHT22;10211;49.476;11.010;2023-09-30T07:56:19;16.60;99.90
16999;DHT22;10211;49.476;11.010;2023-09-30T07:58:47;16.60;99.90
16999;DHT22;10211;49.476;11.010;2023-09-30T08:01:15;16.60;99.90
16999;DHT22;10211;49.476;11.010;2023-09-30T08:03:44;16.60;99.90
16999;DHT22;10211;49.476;11.010;2023-09-30T08:06:10;16.60;99.90
16999;DHT22;10211;49.476;11.010;2023-09-30T08:08:38;16.60;99.90
16999;DHT22;10211;49.476;11.010;2023-09-30T08:11:05;16.60;99.90
16999;DHT22;10211;49.476;11.010;2023-09-30T08:13:33;16.50;99.90
16999;DHT22;10211;49.476;11.010;2023-09-30T08:15:59;16.60;99.90
16999;DHT22;10211;49.476;11.010;2023-09-30T08:18:28;16.80;99.90
16999;DHT22;10211;49.476;11.010;2023-09-30T08:20:54;16.90;99.90
16999;DHT22;10211;49.476;11.010;2023-09-30T08:23:21;17.10;99.90
16999;DHT22;10211;49.476;11.010;2023-09-30T08:25:48;17.40;99.90
16999;DHT22;10211;49.476;11.010;2023-09-30T08:28:15;17.60;99.90
16999;DHT22;10211;49.476;11.010;2023-09-30T08:30:42;18.20;99.90
16999;DHT22;10211;49.476;11.010;2023-09-30T08:33:10;18.00;99.90
16999;DHT22;10211;49.476;11.010;2023-09-30T08:35:38;17.80;99.90
16999;DHT22;10211;49.476;11.010;2023-09-30T08:38:05;17.90;99.90
16999;DHT22;10211;49.476;11.010;2023-09-30T08:40:32;17.80;99.90
16999;DHT22;10211;49.476;11.010;2023-09-30T08:42:59;18.20;99.90
16999;DHT22;10211;49.476;11.010;2023-09-30T08:45:28;18.30;99.90
16999;DHT22;10211;49.476;11.010;2023-09-30T08:47:55;18.40;99.90
16999;DHT22;10211;49.476;11.010;2023-09-30T08:50:22;18.20;99.90
16999;DHT22;10211;49.476;11.010;2023-09-30T08:52:51;18.20;99.90
16999;DHT22;10211;49.476;11.010;2023-09-30T08:55:19;18.30;99.90
16999;DHT22;10211;49.476;11.010;2023-09-30T08:57:48;18.50;99.90
16999;DHT22;10211;49.476;11.010;2023-09-30T09:00:15;18.70;99.90
16999;DHT22;10211;49.476;11.010;2023-09-30T09:02:42;19.00;99.90
16999;DHT22;10211;49.476;11.010;2023-09-30T09:07:39;19.50;99.90
16999;DHT22;10211;49.476;11.010;2023-09-30T09:10:10;19.50;99.90
16999;DHT22;10211;49.476;11.010;2023-09-30T09:12:39;19.70;99.90
16999;DHT22;10211;49.476;11.010;2023-09-30T09:15:07;19.70;99.90
16999;DHT22;10211;49.476;11.010;2023-09-30T09:17:45;19.80;99.90
16999;DHT22;10211;49.476;11.010;2023-09-30T09:20:26;19.90;99.90
16999;DHT22;10211;49.476;11.010;2023-09-30T09:22:54;19.80;99.90
16999;DHT22;10211;49.476;11.010;2023-09-30T09:25:28;19.80;99.90
16999;DHT22;10211;49.476;11.010;2023-09-30T09:27:56;19.80;99.90
16999;DHT22;10211;49.476;11.010;2023-09-30T09:30:25;19.90;99.90
16999;DHT22;10211;49.476;11.010;2023-09-30T09:33:00;19.90;99.90
16999;DHT22;10211;49.476;11.010;2023-09-30T09:35:28;19.90;99.90
16999;DHT22;10211;49.476;11.010;2023-09-30T09:38:00;20.10;99.90
16999;DHT22;10211;49.476;11.010;2023-09-30T09:40:30;20.10;99.90
16999;DHT22;10211;49.476;11.010;2023-09-30T09:43:00;20.40;99.90
16999;DHT22;10211;49.476;11.010;2023-09-30T09:50:56;20.90;99.90
16999;DHT22;10211;49.476;11.010;2023-09-30T09:53:29;21.10;99.90
16999;DHT22;10211;49.476;11.010;2023-09-30T09:56:02;21.10;99.90
16999;DHT22;10211;49.476;11.010;2023-09-30T09:58:32;21.10;99.90
16999;DHT22;10211;49.476;11.010;2023-09-30T10:01:01;21.30;99.90
16999;DHT22;10211;49.476;11.010;2023-09-30T10:03:28;21.60;99.90
16999;DHT22;10211;49.476;11.010;2023-09-30T10:05:56;22.10;99.90
16999;DHT22;10211;49.476;11.010;2023-09-30T10:08:31;22.50;99.90
16999;DHT22;10211;49.476;11.010;2023-09-30T10:11:00;23.00;99.90
16999;DHT22;10211;49.476;11.010;2023-09-30T10:13:54;23.00;99.90
16999;DHT22;10211;49.476;11.010;2023-09-30T10:16:47;22.70;99.90
16999;DHT22;10211;49.476;11.010;2023-09-30T10:19:14;22.40;99.90
16999;DHT22;10211;49.476;11.010;2023-09-30T10:24:43;21.60;99.90
16999;DHT22;10211;49.476;11.010;2023-09-30T10:27:36;21.20;99.90
16999;DHT22;10211;49.476;11.010;2023-09-30T10:30:07;20.50;99.90
16999;DHT22;10211;49.476;11.010;2023-09-30T10:33:12;20.10;99.90
16999;DHT22;10211;49.476;11.010;2023-09-30T10:35:45;20.00;99.90
16999;DHT22;10211;49.476;11.010;2023-09-30T10:38:37;20.10;99.90
16999;DHT22;10211;49.476;11.010;2023-09-30T10:41:08;20.10;99.90
16999;DHT22;10211;49.476;11.010;2023-09-30T10:43:38;20.30;99.90
16999;DHT22;10211;49.476;11.010;2023-09-30T10:46:30;20.60;99.90
16999;DHT22;10211;49.476;11.010;2023-09-30T10:49:15;21.00;99.90
16999;DHT22;10211;49.476;11.010;2023-09-30T10:51:43;21.90;99.90
16999;DHT22;10211;49.476;11.010;2023-09-30T10:54:12;22.70;99.90
16999;DHT22;10211;49.476;11.010;2023-09-30T10:56:39;23.30;99.90
16999;DHT22;10211;49.476;11.010;2023-09-30T10:59:07;23.30;99.90
16999;DHT22;10211;49.476;11.010;2023-09-30T11:01:35;23.20;99.90
16999;DHT22;10211;49.476;11.010;2023-09-30T11:04:03;23.30;99.90
16999;DHT22;10211;49.476;11.010;2023-09-30T11:06:31;23.70;99.90
16999;DHT22;10211;49.476;11.010;2023-09-30T11:09:00;24.40;99.90
16999;DHT22;10211;49.476;11.010;2023-09-30T11:11:35;25.00;99.90
16999;DHT22;10211;49.476;11.010;2023-09-30T11:14:03;26.10;99.90
16999;DHT22;10211;49.476;11.010;2023-09-30T11:16:41;26.20;97.80
16999;DHT22;10211;49.476;11.010;2023-09-30T11:19:08;26.20;96.50
16999;DHT22;10211;49.476;11.010;2023-09-30T11:21:35;26.40;95.40
16999;DHT22;10211;49.476;11.010;2023-09-30T11:24:03;28.10;93.40
16999;DHT22;10211;49.476;11.010;2023-09-30T11:26:30;29.50;90.10
16999;DHT22;10211;49.476;11.010;2023-09-30T11:29:05;30.60;83.00
16999;DHT22;10211;49.476;11.010;2023-09-30T11:31:32;30.10;78.70
16999;DHT22;10211;49.476;11.010;2023-09-30T11:34:01;30.10;78.50
16999;DHT22;10211;49.476;11.010;2023-09-30T11:36:30;30.90;74.00
16999;DHT22;10211;49.476;11.010;2023-09-30T11:38:57;31.60;72.10
16999;DHT22;10211;49.476;11.010;2023-09-30T11:41:38;32.20;71.20
16999;DHT22;10211;49.476;11.010;2023-09-30T11:44:08;32.10;68.50
16999;DHT22;10211;49.476;11.010;2023-09-30T11:46:50;30.90;67.50
16999;DHT22;10211;49.476;11.010;2023-09-30T11:49:30;29.50;69.70
16999;DHT22;10211;49.476;11.010;2023-09-30T11:51:58;28.20;71.00
16999;DHT22;10211;49.476;11.010;2023-09-30T11:54:29;27.20;72.50
16999;DHT22;10211;49.476;11.010;2023-09-30T11:56:57;26.90;73.70
16999;DHT22;10211;49.476;11.010;2023-09-30T11:59:24;26.60;75.60
16999;DHT22;10211;49.476;11.010;2023-09-30T12:01:51;26.90;75.50
16999;DHT22;10211;49.476;11.010;2023-09-30T12:04:18;27.50;75.50
16999;DHT22;10211;49.476;11.010;2023-09-30T12:06:47;27.80;75.20
16999;DHT22;10211;49.476;11.010;2023-09-30T12:09:14;27.80;75.10
16999;DHT22;10211;49.476;11.010;2023-09-30T12:11:43;27.80;74.30
16999;DHT22;10211;49.476;11.010;2023-09-30T12:14:11;27.70;75.50
16999;DHT22;10211;49.476;11.010;2023-09-30T12:16:38;27.40;76.60
16999;DHT22;10211;49.476;11.010;2023-09-30T12:19:05;27.10;74.70
16999;DHT22;10211;49.476;11.010;2023-09-30T12:21:32;26.80;76.10
16999;DHT22;10211;49.476;11.010;2023-09-30T12:24:01;26.80;76.80
16999;DHT22;10211;49.476;11.010;2023-09-30T12:26:30;27.30;74.60
16999;DHT22;10211;49.476;11.010;2023-09-30T12:28:57;27.60;74.10
16999;DHT22;10211;49.476;11.010;2023-09-30T12:31:24;27.70;73.70
16999;DHT22;10211;49.476;11.010;2023-09-30T12:33:51;27.70;73.40
16999;DHT22;10211;49.476;11.010;2023-09-30T12:36:19;27.80;74.00
16999;DHT22;10211;49.476;11.010;2023-09-30T12:38:46;27.50;72.80
16999;DHT22;10211;49.476;11.010;2023-09-30T12:41:14;27.00;73.60
16999;DHT22;10211;49.476;11.010;2023-09-30T12:43:41;26.60;75.10
16999;DHT22;10211;49.476;11.010;2023-09-30T12:46:08;26.10;75.40
16999;DHT22;10211;49.476;11.010;2023-09-30T12:48:35;25.80;76.10
16999;DHT22;10211;49.476;11.010;2023-09-30T12:51:03;25.90;76.70
16999;DHT22;10211;49.476;11.010;2023-09-30T12:53:32;26.40;77.20
16999;DHT22;10211;49.476;11.010;2023-09-30T12:55:59;26.40;75.70
16999;DHT22;10211;49.476;11.010;2023-09-30T12:58:27;26.50;75.80
16999;DHT22;10211;49.476;11.010;2023-09-30T13:00:54;25.70;75.40
16999;DHT22;10211;49.476;11.010;2023-09-30T13:03:21;25.60;76.90
16999;DHT22;10211;49.476;11.010;2023-09-30T13:05:48;26.10;76.10
16999;DHT22;10211;49.476;11.010;2023-09-30T13:08:16;26.80;74.50
16999;DHT22;10211;49.476;11.010;2023-09-30T13:10:42;27.50;72.80
16999;DHT22;10211;49.476;11.010;2023-09-30T13:13:10;27.90;71.30
16999;DHT22;10211;49.476;11.010;2023-09-30T13:15:39;28.10;70.70
16999;DHT22;10211;49.476;11.010;2023-09-30T13:18:06;28.30;71.10
16999;DHT22;10211;49.476;11.010;2023-09-30T13:20:33;28.30;72.30
16999;DHT22;10211;49.476;11.010;2023-09-30T13:22:59;28.10;70.80
16999;DHT22;10211;49.476;11.010;2023-09-30T13:25:28;27.80;71.00
16999;DHT22;10211;49.476;11.010;2023-09-30T13:27:55;27.70;71.50
16999;DHT22;10211;49.476;11.010;2023-09-30T13:30:22;27.50;71.40
16999;DHT22;10211;49.476;11.010;2023-09-30T13:32:50;27.00;71.40
16999;DHT22;10211;49.476;11.010;2023-09-30T13:35:17;26.80;73.30
16999;DHT22;10211;49.476;11.010;2023-09-30T13:37:44;26.60;73.00
16999;DHT22;10211;49.476;11.010;2023-09-30T13:40:12;26.20;72.60
16999;DHT22;10211;49.476;11.010;2023-09-30T13:42:39;25.90;73.50
16999;DHT22;10211;49.476;11.010;2023-09-30T13:45:06;25.50;73.90
16999;DHT22;10211;49.476;11.010;2023-09-30T13:47:34;25.00;75.10
16999;DHT22;10211;49.476;11.010;2023-09-30T13:50:03;24.50;75.90
16999;DHT22;10211;49.476;11.010;2023-09-30T13:52:32;24.20;76.70
16999;DHT22;10211;49.476;11.010;2023-09-30T13:54:59;23.90;77.90
16999;DHT22;10211;49.476;11.010;2023-09-30T13:57:26;23.40;78.30
16999;DHT22;10211;49.476;11.010;2023-09-30T13:59:53;23.10;79.60
16999;DHT22;10211;49.476;11.010;2023-09-30T14:02:19;22.80;80.20
16999;DHT22;10211;49.476;11.010;2023-09-30T14:04:46;22.40;80.20
16999;DHT22;10211;49.476;11.010;2023-09-30T14:07:14;22.10;81.80
16999;DHT22;10211;49.476;11.010;2023-09-30T14:09:43;21.80;84.50
16999;DHT22;10211;49.476;11.010;2023-09-30T14:12:10;21.60;86.30
16999;DHT22;10211;49.476;11.010;2023-09-30T14:14:37;21.50;85.60
16999;DHT22;10211;49.476;11.010;2023-09-30T14:17:04;21.50;86.70
16999;DHT22;10211;49.476;11.010;2023-09-30T14:19:33;21.40;86.10
16999;DHT22;10211;49.476;11.010;2023-09-30T14:22:00;21.30;88.00
16999;DHT22;10211;49.476;11.010;2023-09-30T14:24:28;21.20;87.60
16999;DHT22;10211;49.476;11.010;2023-09-30T14:26:55;21.10;89.00
16999;DHT22;10211;49.476;11.010;2023-09-30T14:29:28;21.00;90.50
16999;DHT22;10211;49.476;11.010;2023-09-30T14:31:55;21.00;91.40
16999;DHT22;10211;49.476;11.010;2023-09-30T14:34:22;21.00;91.80
16999;DHT22;10211;49.476;11.010;2023-09-30T14:36:50;21.00;91.50
16999;DHT22;10211;49.476;11.010;2023-09-30T14:39:17;21.00;91.90
16999;DHT22;10211;49.476;11.010;2023-09-30T14:41:48;20.90;93.60
16999;DHT22;10211;49.476;11.010;2023-09-30T14:44:15;20.80;91.50
16999;DHT22;10211;49.476;11.010;2023-09-30T14:46:42;20.70;91.80
16999;DHT22;10211;49.476;11.010;2023-09-30T14:49:10;20.60;91.50
16999;DHT22;10211;49.476;11.010;2023-09-30T14:51:36;20.60;91.70
16999;DHT22;10211;49.476;11.010;2023-09-30T14:54:04;20.40;92.20
16999;DHT22;10211;49.476;11.010;2023-09-30T14:56:32;20.40;92.50
16999;DHT22;10211;49.476;11.010;2023-09-30T14:59:00;20.40;93.10
16999;DHT22;10211;49.476;11.010;2023-09-30T15:01:28;20.40;93.00
16999;DHT22;10211;49.476;11.010;2023-09-30T15:03:54;20.30;93.20
16999;DHT22;10211;49.476;11.010;2023-09-30T15:06:22;20.30;93.80
16999;DHT22;10211;49.476;11.010;2023-09-30T15:08:52;20.20;94.30
16999;DHT22;10211;49.476;11.010;2023-09-30T15:11:28;20.10;94.10
16999;DHT22;10211;49.476;11.010;2023-09-30T15:13:57;20.00;94.60
16999;DHT22;10211;49.476;11.010;2023-09-30T15:16:25;19.90;95.10
16999;DHT22;10211;49.476;11.010;2023-09-30T15:18:52;19.80;96.40
16999;DHT22;10211;49.476;11.010;2023-09-30T15:21:19;19.70;96.60
16999;DHT22;10211;49.476;11.010;2023-09-30T15:23:46;19.60;97.60
16999;DHT22;10211;49.476;11.010;2023-09-30T15:26:12;19.60;97.80
16999;DHT22;10211;49.476;11.010;2023-09-30T15:28:41;19.70;97.00
16999;DHT22;10211;49.476;11.010;2023-09-30T15:31:08;19.50;99.00
16999;DHT22;10211;49.476;11.010;2023-09-30T15:33:36;19.40;98.30
16999;DHT22;10211;49.476;11.010;2023-09-30T15:36:09;19.30;98.50
16999;DHT22;10211;49.476;11.010;2023-09-30T15:38:36;19.20;98.20
16999;DHT22;10211;49.476;11.010;2023-09-30T15:41:02;19.20;98.60
16999;DHT22;10211;49.476;11.010;2023-09-30T15:43:29;19.10;99.80
16999;DHT22;10211;49.476;11.010;2023-09-30T15:45:59;19.10;99.90
16999;DHT22;10211;49.476;11.010;2023-09-30T15:48:26;19.00;99.90
16999;DHT22;10211;49.476;11.010;2023-09-30T15:50:55;18.90;99.90